Time;durP1;ratioP1;P1;durP2;ratioP2;P2;SDS_P1;SDS_P2;PMS_P1;PMS_P2;Temp;Humidity;BMP_temperature;BMP_pressure;BME280_temperature;BME280_humidity;BME280_pressure;Samples;Min_cycle;Max_cycle;Signal;HPM_P1;HPM_P2
2022/05/14 00:01:24;;;;;;;5.40;4.72;;;;;;;16.75;100.00;98967.03;5002631;28;20018;-63
2022/05/14 00:03:49;;;;;;;6.25;5.63;;;;;;;16.85;100.00;98975.25;5001374;28;20479;-63
2022/05/14 00:06:18;;;;;;;7.18;4.55;;;;;;;16.89;100.00;98966.47;4999369;28;20033;-63
2022/05/14 00:08:44;;;;;;;4.88;4.38;;;;;;;16.93;100.00;98969.81;4999248;28;20330;-63
2022/05/14 00:13:55;;;;;;;3.78;3.17;;;;;;;16.90;100.00;98971.59;5000170;28;20508;-63
2022/05/14 00:16:23;;;;;;;5.80;3.30;;;;;;;16.84;100.00;98978.78;4998617;28;20141;-64
2022/05/14 00:18:51;;;;;;;7.97;3.67;;;;;;;16.77;100.00;98980.75;5000739;28;20161;-63
2022/05/14 00:21:18;;;;;;;5.65;3.35;;;;;;;16.79;100.00;98983.28;4999359;28;20108;-64
2022/05/14 00:23:43;;;;;;;5.68;3.35;;;;;;;16.74;100.00;98978.28;4999722;28;20030;-63
2022/05/14 00:26:09;;;;;;;4.22;3.13;;;;;;;16.75;99.21;98968.78;5002979;28;20156;-63
2022/05/14 00:28:34;;;;;;;8.50;3.35;;;;;;;16.62;97.29;98983.94;5000709;28;20042;-63
2022/05/14 00:31:00;;;;;;;5.50;2.97;;;;;;;16.60;94.11;98969.34;4999671;28;20031;-63
2022/05/14 00:33:25;;;;;;;7.63;2.90;;;;;;;16.53;93.99;98971.28;4999546;28;20030;-63
2022/05/14 00:35:51;;;;;;;3.08;2.88;;;;;;;16.52;93.38;98982.53;5002299;28;20030;-63
2022/05/14 00:38:16;;;;;;;6.85;3.30;;;;;;;16.40;93.36;98978.69;5004248;28;20034;-63
2022/05/14 00:40:46;;;;;;;7.47;3.25;;;;;;;16.28;95.36;98973.09;4998671;28;20566;-63
2022/05/14 00:43:12;;;;;;;3.70;2.80;;;;;;;16.13;98.26;98979.66;4999111;28;20384;-63
2022/05/14 00:45:41;;;;;;;4.45;2.97;;;;;;;16.13;97.64;98971.06;4999946;28;20124;-63
2022/05/14 00:48:10;;;;;;;7.63;3.47;;;;;;;16.08;96.12;98978.16;5001067;28;20156;-63
2022/05/14 00:50:40;;;;;;;6.85;2.70;;;;;;;16.03;96.55;98973.16;4999495;28;20034;-63
2022/05/14 00:53:12;;;;;;;6.22;3.22;;;;;;;16.04;94.31;98968.81;4999107;28;20030;-63
2022/05/14 00:55:39;;;;;;;4.25;3.20;;;;;;;15.97;94.28;98970.75;4998727;28;20360;-62
2022/05/14 00:58:06;;;;;;;3.83;2.90;;;;;;;15.90;94.11;98974.47;4998814;28;20046;-63
2022/05/14 01:00:32;;;;;;;7.38;3.00;;;;;;;15.82;94.74;98973.91;4996997;28;20038;-63
2022/05/14 01:02:58;;;;;;;4.93;3.33;;;;;;;15.76;94.54;98963.75;4998762;28;20373;-62
2022/05/14 01:05:24;;;;;;;5.15;2.50;;;;;;;15.73;95.05;98974.22;4997714;28;20041;-63
2022/05/14 01:07:52;;;;;;;9.60;3.40;;;;;;;15.65;95.55;98965.88;4999236;28;20038;-63
2022/05/14 01:10:21;;;;;;;4.68;2.75;;;;;;;15.52;95.76;98958.53;4997047;28;20075;-62
2022/05/14 01:12:51;;;;;;;3.28;2.70;;;;;;;15.51;94.47;98977.53;5002956;28;20034;-63
2022/05/14 01:15:24;;;;;;;9.80;3.00;;;;;;;15.44;93.62;98973.44;5000869;28;20030;-63
2022/05/14 01:17:49;;;;;;;4.20;3.00;;;;;;;15.42;92.39;98972.63;4998629;28;20541;-62
2022/05/14 01:20:16;;;;;;;2.65;2.45;;;;;;;15.35;91.94;98978.91;4999185;28;20048;-63
2022/05/14 01:23:05;;;;;;;3.03;2.80;;;;;;;15.28;91.71;98976.53;4999548;28;20373;-63
2022/05/14 01:28:26;;;;;;;3.55;2.63;;;;;;;15.23;88.29;98973.28;4999203;28;20072;-62
2022/05/14 01:30:57;;;;;;;3.80;2.47;;;;;;;15.18;88.49;98967.41;4998764;28;20480;-63
2022/05/14 01:33:22;;;;;;;3.80;2.60;;;;;;;15.09;86.97;98978.88;4998941;28;20132;-63
2022/05/14 01:35:48;;;;;;;5.13;2.60;;;;;;;15.08;86.96;98975.44;4996933;28;20038;-62
2022/05/14 01:38:15;;;;;;;3.08;2.03;;;;;;;14.98;86.76;98978.34;4997749;28;20060;-63
2022/05/14 01:40:41;;;;;;;4.05;2.40;;;;;;;14.87;87.23;98977.84;5000395;28;20482;-63
2022/05/14 01:43:06;;;;;;;6.95;2.25;;;;;;;14.82;87.97;98975.41;5000729;28;20038;-63
2022/05/14 01:45:32;;;;;;;4.38;2.55;;;;;;;14.78;89.18;98981.56;4996767;28;20026;-63
2022/05/14 01:47:58;;;;;;;3.63;2.42;;;;;;;14.78;88.50;98983.28;4997528;28;20035;-62
2022/05/14 01:50:23;;;;;;;4.72;3.38;;;;;;;14.78;88.21;98980.72;4984327;28;20124;-62
2022/05/14 01:52:48;;;;;;;2.75;2.15;;;;;;;14.69;88.86;98976.66;4998433;28;20025;-63
2022/05/14 01:55:14;;;;;;;7.88;2.33;;;;;;;14.65;88.46;98977.66;4996659;28;20432;-65
2022/05/14 01:57:40;;;;;;;8.10;2.50;;;;;;;14.71;84.26;98980.06;4999682;28;20025;-64
2022/05/14 02:00:08;;;;;;;5.25;2.72;;;;;;;14.73;82.82;98980.84;4999575;28;20041;-64
2022/05/14 02:02:34;;;;;;;5.93;2.08;;;;;;;14.70;84.46;98974.94;4999365;28;20030;-64
2022/05/14 02:05:00;;;;;;;5.57;1.80;;;;;;;14.73;81.84;98985.16;4987981;28;20080;-63
2022/05/14 02:07:25;;;;;;;4.85;2.22;;;;;;;14.74;82.60;98976.53;5001110;28;20026;-64
2022/05/14 02:09:51;;;;;;;4.07;2.50;;;;;;;14.61;83.53;98976.91;4997894;28;20040;-64
2022/05/14 02:12:16;;;;;;;5.10;2.50;;;;;;;14.54;83.80;98980.56;4999184;28;20037;-63
2022/05/14 02:14:42;;;;;;;2.60;2.40;;;;;;;14.44;84.25;98976.53;4999098;28;20041;-63
2022/05/14 02:17:07;;;;;;;5.50;2.55;;;;;;;14.41;84.72;98974.06;4995376;28;20111;-64
2022/05/14 02:19:34;;;;;;;6.95;2.13;;;;;;;14.35;85.91;98978.50;4997811;28;20065;-64
2022/05/14 02:21:59;;;;;;;3.00;2.70;;;;;;;14.33;86.27;98972.56;4997561;28;20037;-64
2022/05/14 02:24:25;;;;;;;5.20;2.42;;;;;;;14.26;88.25;98981.38;5001457;28;20036;-63
2022/05/14 02:26:50;;;;;;;3.10;2.60;;;;;;;14.16;90.46;98980.78;4999018;28;20402;-64
2022/05/14 02:29:16;;;;;;;3.78;3.10;;;;;;;14.11;92.13;98982.63;4997556;28;20042;-63
2022/05/14 02:31:41;;;;;;;3.65;2.42;;;;;;;14.05;94.06;98982.78;4995875;28;20446;-64
2022/05/14 02:34:07;;;;;;;3.72;2.55;;;;;;;13.87;96.16;98985.88;4998048;28;20117;-64
2022/05/14 02:36:32;;;;;;;5.47;2.50;;;;;;;13.68;98.57;98983.78;5000463;28;20038;-63
2022/05/14 02:38:58;;;;;;;6.25;2.65;;;;;;;13.55;99.80;98984.97;4996111;28;20037;-64
2022/05/14 02:41:23;;;;;;;4.75;2.47;;;;;;;13.46;100.00;98990.34;4998591;28;20038;-63
2022/05/14 02:43:49;;;;;;;4.40;2.40;;;;;;;13.31;100.00;98988.16;5001530;28;20757;-64
2022/05/14 02:46:15;;;;;;;4.97;3.45;;;;;;;13.33;100.00;98986.38;5001180;28;20083;-63
2022/05/14 02:48:41;;;;;;;2.92;2.58;;;;;;;13.20;100.00;98990.13;4998063;28;20026;-64
2022/05/14 02:51:06;;;;;;;6.03;3.65;;;;;;;13.10;100.00;98989.53;4997688;28;20041;-64
2022/05/14 02:53:32;;;;;;;4.55;2.78;;;;;;;12.93;100.00;98994.19;4999806;28;20042;-64
2022/05/14 02:55:58;;;;;;;5.22;2.88;;;;;;;12.81;100.00;98995.28;4999349;28;20030;-63
2022/05/14 03:01:07;;;;;;;6.10;3.10;;;;;;;12.68;100.00;98988.72;4997270;28;20104;-64
2022/05/14 03:03:33;;;;;;;5.82;3.13;;;;;;;12.67;100.00;98996.47;4998043;28;20717;-63
2022/05/14 03:05:59;;;;;;;3.90;2.88;;;;;;;12.56;100.00;98988.16;4997851;28;20108;-64
2022/05/14 03:08:24;;;;;;;6.80;3.13;;;;;;;12.53;100.00;99001.06;4999814;28;20499;-64
2022/05/14 03:10:50;;;;;;;5.57;2.90;;;;;;;12.50;100.00;99007.13;5002633;28;20384;-63
2022/05/14 03:13:16;;;;;;;3.47;2.45;;;;;;;12.37;100.00;99000.53;5002140;28;20571;-63
2022/05/14 03:15:41;;;;;;;4.93;2.90;;;;;;;12.39;100.00;99006.47;5000518;28;20034;-63
2022/05/14 03:18:07;;;;;;;6.63;3.13;;;;;;;12.42;100.00;99003.84;5002632;28;20038;-64
2022/05/14 03:20:32;;;;;;;5.70;3.13;;;;;;;12.66;100.00;99005.91;5005196;28;20120;-64
2022/05/14 03:22:58;;;;;;;18.55;4.75;;;;;;;12.67;100.00;99006.75;5004245;28;20038;-64
2022/05/14 03:25:25;;;;;;;4.88;2.80;;;;;;;12.85;100.00;99008.94;5002053;28;20478;-63
2022/05/14 03:27:51;;;;;;;2.97;2.53;;;;;;;13.02;100.00;99021.44;5001455;28;20035;-64
2022/05/14 03:30:17;;;;;;;4.88;2.92;;;;;;;13.05;100.00;99018.78;5000484;28;20050;-63
2022/05/14 03:32:43;;;;;;;3.17;2.92;;;;;;;13.04;100.00;99027.38;5000480;28;20091;-64
2022/05/14 03:35:08;;;;;;;3.20;2.90;;;;;;;13.16;100.00;99029.69;5000946;28;20041;-63
2022/05/14 03:37:35;;;;;;;5.40;2.80;;;;;;;13.13;100.00;99033.19;5001266;28;20046;-64
2022/05/14 03:40:01;;;;;;;8.35;2.65;;;;;;;13.17;100.00;99026.25;5005162;28;20037;-63
2022/05/14 03:42:26;;;;;;;6.20;2.75;;;;;;;13.22;100.00;99030.41;5001891;28;20153;-64
2022/05/14 03:44:52;;;;;;;6.57;2.88;;;;;;;13.22;100.00;99035.56;4999997;28;20696;-64
2022/05/14 03:47:18;;;;;;;6.00;3.22;;;;;;;13.25;100.00;99042.38;5002148;28;20034;-64
2022/05/14 03:49:45;;;;;;;5.18;3.22;;;;;;;13.20;100.00;99042.47;5003784;28;20079;-64
2022/05/14 03:52:11;;;;;;;4.97;2.45;;;;;;;13.24;100.00;99044.09;5003524;28;20347;-64
2022/05/14 03:54:43;;;;;;;5.53;2.47;;;;;;;13.24;100.00;99056.13;4997570;28;20123;-64
2022/05/14 03:57:09;;;;;;;5.00;2.50;;;;;;;13.31;98.71;99041.38;5004839;28;20109;-64
2022/05/14 03:59:35;;;;;;;4.60;2.35;;;;;;;13.41;96.78;99046.25;5003548;28;20034;-64
2022/05/14 04:02:04;;;;;;;9.18;3.08;;;;;;;13.38;96.42;99050.66;4999810;28;20034;-64
2022/05/14 04:04:30;;;;;;;6.03;1.98;;;;;;;13.51;95.37;99058.06;5000258;28;20038;-64
2022/05/14 04:06:57;;;;;;;5.10;2.63;;;;;;;13.51;95.49;99049.47;5005121;28;20049;-64
2022/05/14 04:09:22;;;;;;;5.50;2.97;;;;;;;13.56;95.64;99063.09;5006024;28;20092;-64
2022/05/14 04:11:48;;;;;;;2.90;2.05;;;;;;;13.70;93.84;99068.78;5001343;28;20025;-64
2022/05/14 04:14:14;;;;;;;7.05;2.20;;;;;;;13.96;91.27;99070.72;4999029;28;20661;-64
2022/05/14 04:16:39;;;;;;;2.38;2.20;;;;;;;14.16;88.60;99073.59;5003904;28;20389;-65
2022/05/14 04:19:05;;;;;;;6.00;2.42;;;;;;;14.37;88.30;99070.47;5001513;28;20027;-64
2022/05/14 04:21:32;;;;;;;6.60;2.75;;;;;;;14.43;87.88;99067.72;4999091;28;20496;-64
2022/05/14 04:23:59;;;;;;;4.40;2.20;;;;;;;14.51;89.61;99073.50;4997231;28;20144;-65
2022/05/14 04:26:25;;;;;;;8.15;2.50;;;;;;;14.57;90.14;99077.66;4998048;28;20141;-65
2022/05/14 04:28:50;;;;;;;4.22;2.17;;;;;;;14.62;91.36;99084.41;4997717;28;20480;-65
2022/05/14 04:31:17;;;;;;;5.72;2.70;;;;;;;14.71;89.08;99078.13;4999035;28;20049;-64
2022/05/14 04:33:42;;;;;;;5.70;3.60;;;;;;;14.80;89.66;99083.03;5001331;28;20025;-65
2022/05/14 04:36:07;;;;;;;2.10;2.00;;;;;;;14.83;90.33;99082.94;5000849;28;20030;-65
2022/05/14 04:38:33;;;;;;;5.78;2.58;;;;;;;14.92;91.91;99089.56;4998360;28;20513;-64
2022/05/14 04:40:58;;;;;;;2.85;2.40;;;;;;;14.91;97.00;99093.03;4999573;28;20412;-64
2022/05/14 04:43:24;;;;;;;4.30;2.72;;;;;;;14.90;98.40;99092.19;5001288;28;20037;-64
2022/05/14 04:45:49;;;;;;;5.03;2.55;;;;;;;14.94;100.00;99096.38;5003834;28;20112;-64
2022/05/14 04:48:15;;;;;;;7.10;2.72;;;;;;;14.97;99.52;99095.47;5000470;28;20490;-64
2022/05/14 04:50:40;;;;;;;4.45;2.58;;;;;;;14.89;99.85;99102.59;4997982;28;20078;-64
2022/05/14 04:53:07;;;;;;;7.93;3.15;;;;;;;14.84;100.00;99104.44;5001859;28;20038;-63
2022/05/14 04:55:33;;;;;;;6.47;2.60;;;;;;;14.79;100.00;99102.00;4999762;28;20044;-64
2022/05/14 04:57:59;;;;;;;3.03;2.65;;;;;;;14.97;99.90;99104.06;4997836;28;20038;-64
2022/05/14 05:00:25;;;;;;;3.38;2.50;;;;;;;15.12;98.09;99105.31;4999459;28;20073;-64
2022/05/14 05:05:34;;;;;;;4.43;2.63;;;;;;;15.28;95.45;99114.28;5001083;28;20032;-64
2022/05/14 05:08:00;;;;;;;3.20;2.88;;;;;;;15.45;93.21;99117.22;4998964;28;20065;-64
2022/05/14 05:10:26;;;;;;;6.68;3.47;;;;;;;15.59;92.86;99123.72;4999501;28;20121;-64
2022/05/14 05:12:51;;;;;;;5.10;2.90;;;;;;;15.52;93.47;99125.66;4998482;28;20125;-64
2022/05/14 05:15:17;;;;;;;3.58;2.50;;;;;;;15.62;93.57;99126.22;4999592;28;20038;-64
2022/05/14 05:17:42;;;;;;;5.45;2.63;;;;;;;15.65;92.06;99123.56;5000517;28;20084;-64
2022/05/14 05:20:09;;;;;;;11.75;2.95;;;;;;;15.78;93.62;99124.84;4999555;28;20030;-64
2022/05/14 05:22:35;;;;;;;4.60;2.47;;;;;;;15.86;91.54;99134.06;4998679;28;20045;-62
2022/05/14 05:25:01;;;;;;;3.47;2.72;;;;;;;15.79;89.87;99132.53;4997417;28;20022;-64
2022/05/14 05:27:26;;;;;;;3.42;2.63;;;;;;;15.89;90.22;99136.53;4996395;28;20496;-63
2022/05/14 05:29:51;;;;;;;5.07;3.00;;;;;;;15.87;89.24;99127.16;4998992;28;20118;-65
2022/05/14 05:32:17;;;;;;;3.50;2.90;;;;;;;15.80;89.11;99135.97;5002884;28;20033;-65
2022/05/14 05:34:42;;;;;;;9.45;4.32;;;;;;;15.77;86.64;99129.19;4997738;28;20040;-65
2022/05/14 05:37:08;;;;;;;6.63;4.15;;;;;;;15.92;85.61;99128.66;4997186;28;20106;-64
2022/05/14 05:39:33;;;;;;;4.03;2.42;;;;;;;15.79;85.48;99142.03;4996835;28;20149;-64
2022/05/14 05:41:59;;;;;;;3.22;2.80;;;;;;;15.88;83.36;99142.59;4997684;28;20041;-64
2022/05/14 05:44:27;;;;;;;4.07;2.95;;;;;;;15.86;84.21;99140.97;4999817;28;20044;-64
2022/05/14 05:46:54;;;;;;;5.90;2.65;;;;;;;16.00;83.48;99149.09;4997961;28;20037;-64
2022/05/14 05:49:20;;;;;;;2.60;2.40;;;;;;;16.04;77.99;99135.19;4998423;28;20587;-64
2022/05/14 05:51:46;;;;;;;4.05;2.22;;;;;;;16.04;80.20;99140.34;4996464;28;20030;-64
2022/05/14 05:56:57;;;;;;;6.57;3.00;;;;;;;16.18;75.88;99145.91;4998386;28;20087;-62
2022/05/14 05:59:24;;;;;;;5.38;2.33;;;;;;;16.26;77.63;99143.91;4999220;28;20086;-64
2022/05/14 06:01:52;;;;;;;2.20;2.00;;;;;;;16.24;74.93;99142.28;4998305;28;20111;-64
2022/05/14 06:04:18;;;;;;;4.65;2.78;;;;;;;16.36;75.70;99147.06;4998297;28;20263;-65
2022/05/14 06:06:43;;;;;;;3.13;2.83;;;;;;;16.43;72.63;99153.69;4997638;28;20030;-65
2022/05/14 06:09:13;;;;;;;3.08;2.28;;;;;;;16.53;73.51;99155.09;4996089;28;20351;-65
2022/05/14 06:11:39;;;;;;;3.15;2.40;;;;;;;16.60;72.04;99158.31;4997127;28;20030;-65
2022/05/14 06:14:04;;;;;;;4.68;2.58;;;;;;;16.54;67.52;99153.34;4997495;28;20455;-65
2022/05/14 06:16:30;;;;;;;4.82;2.15;;;;;;;16.56;68.26;99154.97;4998189;28;20157;-64
2022/05/14 06:18:55;;;;;;;3.47;2.25;;;;;;;16.56;67.06;99156.72;5001637;28;20030;-64
2022/05/14 06:21:21;;;;;;;5.20;2.03;;;;;;;16.58;65.77;99154.97;4997266;28;20116;-64
2022/05/14 06:23:46;;;;;;;3.63;1.85;;;;;;;16.65;68.18;99146.06;4997495;28;20492;-65
2022/05/14 06:26:12;;;;;;;3.53;1.85;;;;;;;16.67;65.75;99146.88;4999564;28;20065;-65
2022/05/14 06:28:37;;;;;;;3.05;2.08;;;;;;;16.70;64.51;99165.72;5000890;28;20560;-65
2022/05/14 06:31:03;;;;;;;5.00;2.00;;;;;;;16.60;63.97;99159.16;4999479;28;20078;-65
2022/05/14 06:33:29;;;;;;;5.03;2.00;;;;;;;16.64;63.60;99150.41;4996729;28;20037;-63
2022/05/14 06:35:55;;;;;;;6.95;3.95;;;;;;;16.66;62.85;99146.03;5000904;28;20034;-64
2022/05/14 06:38:20;;;;;;;3.10;2.20;;;;;;;16.58;65.79;99153.22;4983897;28;20512;-65
2022/05/14 06:40:46;;;;;;;3.95;2.45;;;;;;;16.79;66.27;99154.19;5002175;28;20048;-65
2022/05/14 06:43:16;;;;;;;4.35;1.95;;;;;;;16.86;64.98;99153.91;5002161;28;20044;-65
2022/05/14 06:45:45;;;;;;;3.53;2.70;;;;;;;16.74;66.96;99144.00;5002139;28;20481;-65
2022/05/14 06:48:11;;;;;;;5.72;2.00;;;;;;;16.95;64.53;99154.50;5002640;28;20577;-65
2022/05/14 06:50:46;;;;;;;4.88;2.65;;;;;;;17.01;65.13;99151.69;4984448;28;20117;-64
2022/05/14 06:53:14;;;;;;;2.50;2.30;;;;;;;16.99;63.99;99156.91;5000858;28;20061;-65
2022/05/14 06:55:42;;;;;;;4.82;2.30;;;;;;;17.07;63.60;99149.69;4999727;28;20441;-65
2022/05/14 06:58:13;;;;;;;5.45;2.25;;;;;;;17.12;62.01;99155.56;5000330;28;20643;-65
2022/05/14 07:00:39;;;;;;;3.67;2.72;;;;;;;17.22;61.45;99156.06;5001730;28;20064;-65
2022/05/14 07:08:33;;;;;;;2.90;2.15;;;;;;;17.23;59.19;99156.00;4998886;28;20065;-65
2022/05/14 07:10:59;;;;;;;3.65;2.38;;;;;;;17.50;59.45;99153.25;5000608;28;20034;-64
2022/05/14 07:13:24;;;;;;;3.60;2.40;;;;;;;17.60;59.28;99152.06;5002782;28;20036;-65
2022/05/14 07:15:50;;;;;;;3.10;1.95;;;;;;;17.75;57.87;99157.47;5003910;28;20064;-64
2022/05/14 07:18:15;;;;;;;3.13;1.75;;;;;;;17.85;57.81;99144.13;4999868;28;20030;-64
2022/05/14 07:20:41;;;;;;;2.30;2.10;;;;;;;17.80;55.56;99146.91;5000879;28;20497;-64
2022/05/14 07:23:06;;;;;;;3.25;1.90;;;;;;;17.89;56.26;99143.97;5000436;28;20099;-64
2022/05/14 07:25:32;;;;;;;3.58;3.03;;;;;;;18.03;53.95;99153.78;5003450;28;20587;-64
2022/05/14 07:27:58;;;;;;;2.55;2.40;;;;;;;18.16;54.54;99140.22;5000337;28;20037;-66
2022/05/14 07:30:23;;;;;;;3.90;2.38;;;;;;;18.36;55.10;99142.00;5001591;28;20038;-65
2022/05/14 07:32:49;;;;;;;4.35;2.20;;;;;;;18.45;54.33;99138.16;5000926;28;20048;-65
2022/05/14 07:35:14;;;;;;;4.13;2.60;;;;;;;18.46;53.82;99145.88;5001583;28;20054;-64
2022/05/14 07:37:46;;;;;;;2.38;2.28;;;;;;;18.55;53.68;99142.06;4999447;28;20348;-65
2022/05/14 07:40:19;;;;;;;2.88;2.10;;;;;;;18.68;53.33;99138.88;5001744;28;20125;-65
2022/05/14 07:42:49;;;;;;;4.32;2.20;;;;;;;18.80;52.69;99137.50;5002884;28;20122;-65
2022/05/14 07:45:37;;;;;;;3.08;2.10;;;;;;;18.74;52.11;99135.19;5001890;28;20030;-64
2022/05/14 07:48:07;;;;;;;3.30;2.28;;;;;;;18.76;52.65;99129.91;4999165;28;20030;-64
2022/05/14 07:50:32;;;;;;;3.58;3.22;;;;;;;19.00;52.01;99126.22;4999540;28;20040;-63
2022/05/14 07:52:58;;;;;;;5.22;2.53;;;;;;;19.06;51.76;99134.56;4982346;28;20034;-64
2022/05/14 07:55:24;;;;;;;6.45;2.58;;;;;;;19.32;50.09;99133.38;4998082;28;20036;-64
2022/05/14 07:57:50;;;;;;;3.20;1.88;;;;;;;19.54;50.52;99126.31;5000345;28;20462;-64
2022/05/14 08:00:16;;;;;;;5.25;2.40;;;;;;;19.49;49.78;99130.03;5001270;28;20487;-57
2022/05/14 08:02:44;;;;;;;2.50;2.35;;;;;;;19.68;49.67;99130.00;5000118;28;20087;-64
2022/05/14 08:05:11;;;;;;;3.58;2.42;;;;;;;19.59;49.93;99126.94;5001403;28;20026;-64
2022/05/14 08:07:37;;;;;;;3.20;2.58;;;;;;;19.71;48.53;99122.91;4999063;28;20034;-66
2022/05/14 08:10:05;;;;;;;4.22;2.15;;;;;;;19.87;48.36;99123.84;5002008;28;20113;-58
2022/05/14 08:12:34;;;;;;;2.70;2.40;;;;;;;19.80;48.10;99127.66;5004289;28;20061;-63
2022/05/14 08:15:00;;;;;;;3.53;2.40;;;;;;;19.65;48.88;99120.56;5000764;28;20467;-62
2022/05/14 08:17:29;;;;;;;3.42;2.33;;;;;;;19.77;48.43;99116.56;4998174;28;20105;-62
2022/05/14 08:19:55;;;;;;;3.10;2.30;;;;;;;19.65;48.95;99120.56;5001573;28;20033;-63
2022/05/14 08:25:07;;;;;;;3.35;2.78;;;;;;;19.78;49.01;99113.03;5000399;28;20041;-63
2022/05/14 08:27:44;;;;;;;3.58;2.40;;;;;;;20.06;48.11;99114.22;5000791;28;20065;-63
2022/05/14 08:30:14;;;;;;;4.40;2.30;;;;;;;20.26;47.49;99112.38;5003589;28;20377;-63
2022/05/14 08:32:40;;;;;;;3.58;2.10;;;;;;;20.26;47.32;99107.16;5001173;28;20081;-62
2022/05/14 08:35:05;;;;;;;5.10;2.47;;;;;;;20.11;48.41;99103.59;4998664;28;20042;-62
2022/05/14 08:37:31;;;;;;;3.65;2.38;;;;;;;19.92;48.35;99102.78;4999309;28;20032;-62
2022/05/14 08:39:56;;;;;;;3.42;2.22;;;;;;;19.97;47.63;99086.03;5004741;28;20040;-63
2022/05/14 08:42:22;;;;;;;3.17;2.35;;;;;;;20.24;47.47;99089.00;4998708;28;20026;-61
2022/05/14 08:44:49;;;;;;;5.47;2.45;;;;;;;20.37;47.78;99086.63;4999927;28;20033;-62
2022/05/14 08:47:57;;;;;;;3.65;2.33;;;;;;;20.74;46.81;99088.19;4999746;28;20489;-62
2022/05/14 08:50:29;;;;;;;5.25;2.65;;;;;;;20.62;46.24;99081.88;4950370;28;20098;-62
2022/05/14 08:53:00;;;;;;;5.75;2.50;;;;;;;20.79;47.55;99081.78;4948130;28;20050;-63
2022/05/14 08:55:54;;;;;;;4.97;2.20;;;;;;;20.63;47.29;99070.50;4945934;28;20070;-62
2022/05/14 08:58:45;;;;;;;7.38;2.63;;;;;;;20.86;48.21;99071.91;4942663;28;20099;-62
2022/05/14 09:01:16;;;;;;;3.03;2.10;;;;;;;21.02;46.83;99071.91;4939346;28;20424;-61
2022/05/14 09:03:44;;;;;;;4.38;2.15;;;;;;;21.15;46.17;99070.34;4944909;28;20076;-62
2022/05/14 09:06:10;;;;;;;3.90;2.30;;;;;;;21.25;45.44;99068.94;4946233;28;20039;-61
2022/05/14 09:08:35;;;;;;;2.78;2.17;;;;;;;21.27;45.69;99067.06;4947750;28;20050;-62
2022/05/14 09:11:11;;;;;;;4.65;2.17;;;;;;;21.18;46.20;99063.19;4948852;28;20128;-62
2022/05/14 09:13:48;;;;;;;2.38;2.15;;;;;;;21.40;46.50;99062.84;4946162;28;20412;-62
2022/05/14 09:16:29;;;;;;;4.60;2.45;;;;;;;21.26;44.29;99055.78;4945044;28;20062;-62
2022/05/14 09:18:55;;;;;;;5.72;2.50;;;;;;;21.38;45.11;99064.72;4945640;28;20035;-62
2022/05/14 09:21:23;;;;;;;4.13;2.38;;;;;;;21.67;45.26;99060.44;4965700;28;20604;-64
2022/05/14 09:23:58;;;;;;;3.10;2.47;;;;;;;21.69;46.18;99061.19;4980434;28;20431;-62
2022/05/14 09:26:37;;;;;;;4.03;2.08;;;;;;;21.57;44.91;99057.50;4984071;28;20040;-62
2022/05/14 09:29:47;;;;;;;2.72;2.08;;;;;;;21.56;44.88;99058.44;4982320;28;20031;-61
2022/05/14 09:32:22;;;;;;;6.93;2.45;;;;;;;21.50;45.92;99056.19;4975371;28;20401;-61
2022/05/14 09:34:48;;;;;;;2.53;2.30;;;;;;;21.33;45.22;99051.91;4981115;28;20072;-62
2022/05/14 09:37:23;;;;;;;3.17;2.50;;;;;;;21.54;45.65;99055.09;4983114;28;20105;-62
2022/05/14 09:39:58;;;;;;;;;;;;;;;21.67;45.45;99047.41;4981682;28;20034;-62
2022/05/14 09:42:48;;;;;;;9.07;2.60;;;;;;;21.75;45.35;99039.97;4979283;28;19964;-62
2022/05/14 09:45:34;;;;;;;3.90;2.72;;;;;;;21.87;45.30;99034.88;4983230;28;20045;-61
2022/05/14 09:48:18;;;;;;;2.58;2.10;;;;;;;21.67;45.35;99036.97;4982041;28;20048;-62
2022/05/14 09:50:55;;;;;;;2.58;1.98;;;;;;;21.62;46.03;99032.00;4979124;28;20257;-61
2022/05/14 09:53:29;;;;;;;5.13;3.17;;;;;;;21.92;46.93;99037.25;4981808;28;20125;-62
2022/05/14 09:56:12;;;;;;;3.00;2.53;;;;;;;22.15;44.80;99028.06;4980985;28;20132;-60
2022/05/14 09:58:52;;;;;;;5.20;2.38;;;;;;;22.40;43.94;99022.19;4978763;28;20711;-62
2022/05/14 10:01:45;;;;;;;4.13;2.90;;;;;;;22.48;43.35;99019.97;4978409;28;20117;-63
2022/05/14 10:04:51;;;;;;;3.08;2.70;;;;;;;22.56;44.00;99017.72;4982367;28;20121;-61
2022/05/14 10:07:22;;;;;;;3.95;2.70;;;;;;;22.49;44.63;99019.84;4980822;28;20038;-61
2022/05/14 10:10:25;;;;;;;4.38;2.75;;;;;;;22.42;44.15;99028.16;4978981;28;20461;-60
2022/05/14 10:13:00;;;;;;;4.30;2.42;;;;;;;21.90;44.89;99025.19;4982254;28;20037;-60
2022/05/14 10:15:45;;;;;;;3.78;2.50;;;;;;;21.88;44.68;99028.72;4982350;28;20045;-61
2022/05/14 10:18:10;;;;;;;;;;;;;;;22.33;44.08;99019.94;4998402;28;20431;-60
2022/05/14 10:20:42;;;;;;;3.40;3.05;;;;;;;22.11;41.03;99018.69;4998173;28;20449;-60
2022/05/14 10:26:47;;;;;;;4.07;2.60;;;;;;;22.31;43.86;99010.53;4997508;28;20049;-59
2022/05/14 10:29:30;;;;;;;3.08;1.90;;;;;;;22.31;41.71;99000.94;4999915;28;20077;-59
2022/05/14 10:32:05;;;;;;;4.65;2.30;;;;;;;22.12;41.07;98991.66;4998753;28;20030;-60
2022/05/14 10:34:48;;;;;;;3.47;2.78;;;;;;;22.05;42.13;98987.75;5000885;28;20109;-61
2022/05/14 10:37:50;;;;;;;6.72;2.20;;;;;;;22.27;42.92;98991.59;4996954;28;20698;-60
2022/05/14 10:40:23;;;;;;;5.32;2.78;;;;;;;22.46;42.20;98986.06;4960140;28;20050;-60
2022/05/14 10:43:00;;;;;;;3.20;2.30;;;;;;;22.56;41.71;98995.03;4959929;28;20038;-60
2022/05/14 10:45:34;;;;;;;5.00;2.88;;;;;;;22.68;38.89;98994.25;4962887;28;20054;-60
2022/05/14 10:48:20;;;;;;;6.35;3.65;;;;;;;22.25;38.96;99001.28;4960194;28;20556;-64
2022/05/14 10:50:46;;;;;;;3.03;2.40;;;;;;;22.17;39.87;98984.41;4965209;28;20057;-65
2022/05/14 10:53:12;;;;;;;9.25;2.88;;;;;;;22.35;39.77;98988.50;4961046;28;20073;-63
2022/05/14 10:56:00;;;;;;;4.05;2.35;;;;;;;22.77;39.27;98992.88;4961315;28;20034;-60
2022/05/14 10:58:42;;;;;;;3.72;3.20;;;;;;;22.67;43.05;98984.75;4961733;28;20059;-61
2022/05/14 11:01:10;;;;;;;5.07;2.47;;;;;;;22.80;38.57;98982.22;4965898;28;20035;-60
2022/05/14 11:03:36;;;;;;;2.60;2.40;;;;;;;22.90;39.86;98992.94;4961883;28;20486;-61
2022/05/14 11:06:01;;;;;;;3.55;2.45;;;;;;;22.58;39.34;98974.84;4960750;28;20082;-60
2022/05/14 11:08:40;;;;;;;3.67;2.85;;;;;;;22.72;38.81;98981.88;4962905;28;20034;-62
2022/05/14 11:11:13;;;;;;;2.53;1.90;;;;;;;22.68;34.68;98964.66;4963949;28;20485;-61
2022/05/14 11:13:39;;;;;;;2.95;2.35;;;;;;;22.90;37.63;98966.81;4962646;28;20111;-61
2022/05/14 11:16:11;;;;;;;3.50;2.30;;;;;;;22.95;36.94;98962.13;4965446;28;20064;-61
2022/05/14 11:18:47;;;;;;;3.10;2.20;;;;;;;22.68;36.11;98959.44;5002836;28;20087;-59
2022/05/14 11:21:14;;;;;;;3.38;2.05;;;;;;;22.59;36.42;98960.00;4997757;28;20065;-60
2022/05/14 11:24:11;;;;;;;3.63;2.55;;;;;;;22.77;37.77;98957.13;4997757;28;20037;-60
2022/05/14 11:26:51;;;;;;;2.35;2.15;;;;;;;22.75;37.51;98963.38;4989547;28;20049;-60
2022/05/14 11:29:19;;;;;;;2.70;2.50;;;;;;;22.90;37.16;98943.25;5003154;28;20042;-60
2022/05/14 11:32:06;;;;;;;2.25;2.05;;;;;;;22.86;37.55;98941.78;5002698;28;20030;-60
2022/05/14 11:34:31;;;;;;;10.20;2.67;;;;;;;22.86;37.86;98960.94;5001616;28;20034;-62
2022/05/14 11:36:59;;;;;;;2.05;1.90;;;;;;;22.98;38.10;98941.00;5003505;28;20034;-61
2022/05/14 11:39:29;;;;;;;1.85;1.75;;;;;;;23.23;36.82;98931.44;5003493;28;20026;-61
2022/05/14 11:42:12;;;;;;;5.95;2.20;;;;;;;22.99;36.63;98934.84;5000591;28;20570;-61
2022/05/14 11:44:40;;;;;;;3.20;2.17;;;;;;;22.92;36.63;98925.69;5000614;28;20041;-61
2022/05/14 11:47:24;;;;;;;3.78;2.30;;;;;;;23.19;37.63;98931.75;5002499;28;20091;-62
2022/05/14 11:49:51;;;;;;;4.32;2.40;;;;;;;23.16;37.95;98917.09;5003045;28;20031;-62
2022/05/14 11:52:23;;;;;;;3.25;2.40;;;;;;;23.06;36.97;98934.31;4999985;28;20256;-61
2022/05/14 11:54:55;;;;;;;2.33;2.13;;;;;;;22.99;37.76;98916.53;4987675;28;20060;-62
2022/05/14 11:57:32;;;;;;;6.38;2.33;;;;;;;23.11;37.79;98919.19;5002442;28;20046;-62
2022/05/14 12:00:03;;;;;;;3.17;2.10;;;;;;;23.34;37.57;98906.38;5001652;28;20067;-61
2022/05/14 12:02:39;;;;;;;3.15;2.33;;;;;;;23.31;37.36;98910.00;4997323;28;20789;-61
2022/05/14 12:05:08;;;;;;;2.20;2.00;;;;;;;23.36;37.76;98913.16;5004596;28;20081;-62
2022/05/14 12:07:39;;;;;;;2.70;2.35;;;;;;;23.45;37.56;98917.81;5003067;28;20057;-60